createdAt,value
2023-05-13T00:00:11.134Z,42.88
2023-05-13T00:02:43.052Z,43.22
2023-05-13T00:05:15.272Z,42.86
2023-05-13T00:07:43.673Z,42.71
2023-05-13T00:10:12.200Z,42.65
2023-05-13T00:12:40.657Z,42.29
2023-05-13T00:15:09.619Z,41.77
2023-05-13T00:17:40.844Z,42.13
2023-05-13T00:23:08.217Z,41.99
2023-05-13T00:25:41.714Z,41.95
2023-05-13T00:28:11.178Z,42.25
2023-05-13T00:30:44.382Z,41.89
2023-05-13T00:33:16.162Z,42.13
2023-05-13T00:35:45.065Z,42.07
2023-05-13T00:38:16.126Z,41.83
2023-05-13T00:40:45.008Z,41.91
2023-05-13T00:43:17.516Z,42.07
2023-05-13T00:45:47.101Z,41.71
2023-05-13T00:48:16.484Z,41.88
2023-05-13T00:50:45.199Z,41.50
2023-05-13T00:53:14.234Z,41.62
2023-05-13T00:55:44.522Z,41.56
2023-05-13T00:58:16.544Z,41.55
2023-05-13T01:01:08.715Z,41.01
2023-05-13T01:04:15.112Z,41.30
2023-05-13T01:06:57.910Z,41.15
2023-05-13T01:09:57.401Z,41.47
2023-05-13T01:12:38.254Z,41.35
2023-05-13T01:15:15.952Z,41.61
2023-05-13T01:18:00.618Z,41.66
2023-05-13T01:20:37.247Z,41.71
2023-05-13T01:23:07.077Z,41.75
2023-05-13T01:25:38.589Z,41.83
2023-05-13T01:28:08.815Z,41.77
2023-05-13T01:30:42.315Z,41.72
2023-05-13T01:33:15.666Z,41.53
2023-05-13T01:35:48.421Z,41.61
2023-05-13T01:38:20.816Z,41.79
2023-05-13T01:40:53.752Z,41.76
2023-05-13T01:43:23.264Z,41.71
2023-05-13T01:45:51.959Z,41.94
2023-05-13T01:48:20.705Z,42.27
2023-05-13T01:50:50.500Z,42.12
2023-05-13T01:53:20.472Z,42.11
2023-05-13T01:55:52.184Z,42.16
2023-05-13T01:58:24.106Z,41.46
2023-05-13T02:00:55.592Z,41.60
2023-05-13T02:03:24.350Z,41.85
2023-05-13T02:05:55.791Z,41.38
2023-05-13T02:08:28.579Z,41.70
2023-05-13T02:11:01.094Z,41.72
2023-05-13T02:13:32.636Z,41.80
2023-05-13T02:16:02.409Z,41.78
2023-05-13T02:18:32.228Z,41.86
2023-05-13T02:21:00.808Z,41.66
2023-05-13T02:23:29.721Z,41.53
2023-05-13T02:25:59.256Z,41.69
2023-05-13T02:28:29.492Z,41.33
2023-05-13T02:30:57.928Z,41.50
2023-05-13T02:33:26.770Z,42.08
2023-05-13T02:36:04.053Z,42.08
2023-05-13T02:38:33.031Z,42.39
2023-05-13T02:41:08.540Z,42.21
2023-05-13T02:43:47.285Z,42.48
2023-05-13T02:46:18.790Z,42.42
2023-05-13T02:48:50.220Z,42.79
2023-05-13T02:51:22.020Z,42.63
2023-05-13T02:53:53.319Z,42.42
2023-05-13T02:56:25.629Z,42.39
2023-05-13T02:58:54.458Z,42.40
2023-05-13T03:01:28.621Z,41.91
2023-05-13T03:04:02.961Z,41.92
2023-05-13T03:06:34.874Z,42.29
2023-05-13T03:09:05.569Z,42.40
2023-05-13T03:11:37.979Z,42.36
2023-05-13T03:14:10.601Z,41.99
2023-05-13T03:16:44.326Z,41.90
2023-05-13T03:19:16.773Z,41.38
2023-05-13T03:21:46.304Z,41.43
2023-05-13T03:24:17.228Z,41.37
2023-05-13T03:26:47.197Z,41.26
2023-05-13T03:29:17.316Z,41.53
2023-05-13T03:31:51.781Z,41.80
2023-05-13T03:34:25.600Z,41.71
2023-05-13T03:37:00.851Z,41.51
2023-05-13T03:39:34.229Z,41.74
2023-05-13T03:42:03.447Z,41.47
2023-05-13T03:44:44.189Z,41.57
2023-05-13T03:47:18.664Z,41.49
2023-05-13T03:49:52.225Z,41.66
2023-05-13T03:52:23.762Z,41.40
2023-05-13T03:54:59.858Z,41.23
2023-05-13T03:57:28.917Z,41.34
2023-05-13T04:00:05.749Z,41.29
2023-05-13T04:02:43.778Z,41.33
2023-05-13T04:05:16.702Z,40.74
2023-05-13T04:07:45.411Z,40.78
2023-05-13T04:10:18.231Z,40.68
2023-05-13T04:12:46.623Z,40.90
2023-05-13T04:15:19.234Z,40.69
2023-05-13T04:17:48.846Z,40.26
2023-05-13T04:20:26.128Z,40.34
2023-05-13T04:22:58.784Z,40.30
2023-05-13T04:25:31.193Z,40.65
2023-05-13T04:28:02.888Z,40.73
2023-05-13T04:30:41.675Z,40.62
2023-05-13T04:33:10.687Z,40.79
2023-05-13T04:35:43.698Z,40.83
2023-05-13T04:38:22.224Z,41.41
2023-05-13T04:40:58.694Z,41.21
2023-05-13T04:43:35.896Z,41.28
2023-05-13T04:46:05.906Z,41.77
2023-05-13T04:48:39.950Z,41.34
2023-05-13T04:51:11.055Z,41.65
2023-05-13T04:53:40.700Z,41.53
2023-05-13T04:56:13.489Z,42.02
2023-05-13T04:58:42.322Z,41.78
2023-05-13T05:01:14.010Z,41.77
2023-05-13T05:03:47.313Z,41.96
2023-05-13T05:06:18.854Z,42.24
2023-05-13T05:08:47.513Z,42.20
2023-05-13T05:11:19.484Z,42.28
2023-05-13T05:13:59.936Z,42.44
2023-05-13T05:16:32.182Z,42.38
2023-05-13T05:19:04.505Z,42.07
2023-05-13T05:21:46.864Z,42.44
2023-05-13T05:24:20.396Z,41.84
2023-05-13T05:26:49.760Z,41.92
2023-05-13T05:29:19.212Z,42.00
2023-05-13T05:31:49.286Z,41.84
2023-05-13T05:34:18.421Z,41.80
2023-05-13T05:36:54.696Z,41.92
2023-05-13T05:39:23.901Z,41.70
2023-05-13T05:41:54.161Z,41.90
2023-05-13T05:44:23.491Z,42.14
2023-05-13T05:46:53.381Z,42.08
2023-05-13T05:49:22.236Z,41.72
2023-05-13T05:51:52.175Z,41.42
2023-05-13T05:54:22.179Z,41.60
2023-05-13T05:56:50.785Z,41.54
2023-05-13T05:59:23.020Z,41.07
2023-05-13T06:01:52.309Z,41.04
2023-05-13T06:04:26.945Z,41.20
2023-05-13T06:06:55.779Z,41.16
2023-05-13T06:09:27.396Z,41.28
2023-05-13T06:11:55.887Z,40.72
2023-05-13T06:14:24.961Z,41.12
2023-05-13T06:16:56.593Z,40.61
2023-05-13T06:19:31.869Z,40.98
2023-05-13T06:22:03.284Z,40.78
2023-05-13T06:24:35.297Z,40.85
2023-05-13T06:27:08.216Z,40.66
2023-05-13T06:29:37.024Z,41.09
2023-05-13T06:32:06.006Z,40.97
2023-05-13T06:34:35.169Z,41.08
2023-05-13T06:37:04.094Z,41.13
2023-05-13T06:39:32.548Z,41.42
2023-05-13T06:42:01.447Z,41.09
2023-05-13T06:44:35.351Z,41.37
2023-05-13T06:47:18.438Z,41.17
2023-05-13T06:49:52.726Z,41.21
2023-05-13T06:52:24.325Z,41.32
2023-05-13T06:54:53.014Z,41.27
2023-05-13T06:57:43.065Z,41.09
2023-05-13T07:00:18.071Z,40.82
2023-05-13T07:02:47.041Z,40.79
2023-05-13T07:05:17.348Z,41.07
2023-05-13T07:07:46.299Z,41.43
2023-05-13T07:10:16.767Z,41.25
2023-05-13T07:12:45.762Z,41.14
2023-05-13T07:15:14.812Z,40.69
2023-05-13T07:17:44.360Z,41.16
2023-05-13T07:20:15.769Z,40.80
2023-05-13T07:22:44.470Z,40.88
2023-05-13T07:25:24.500Z,40.75
2023-05-13T07:28:01.448Z,40.32
2023-05-13T07:30:33.658Z,40.53
2023-05-13T07:33:02.381Z,40.50
2023-05-13T07:35:31.391Z,40.51
2023-05-13T07:38:03.213Z,40.66
2023-05-13T07:40:31.900Z,40.96
2023-05-13T07:43:09.028Z,40.76
2023-05-13T07:45:39.509Z,41.28
2023-05-13T07:48:10.449Z,40.91
2023-05-13T07:50:39.625Z,40.37
2023-05-13T07:53:25.480Z,39.99
2023-05-13T07:56:00.689Z,39.78
2023-05-13T07:58:29.438Z,39.91
2023-05-13T08:01:00.736Z,40.16
2023-05-13T08:03:33.442Z,39.97
2023-05-13T08:06:02.609Z,39.79
2023-05-13T08:08:40.163Z,39.89
2023-05-13T08:11:17.792Z,39.94
2023-05-13T08:13:48.819Z,40.11
2023-05-13T08:16:17.415Z,40.14
2023-05-13T08:18:46.265Z,40.06
2023-05-13T08:21:17.844Z,39.64
2023-05-13T08:23:56.330Z,39.70
2023-05-13T08:26:29.784Z,39.85
2023-05-13T08:28:58.937Z,39.99
2023-05-13T08:31:27.958Z,39.85
2023-05-13T08:33:58.866Z,39.96
2023-05-13T08:36:31.516Z,39.92
2023-05-13T08:39:00.507Z,39.88
2023-05-13T08:41:35.481Z,40.01
2023-05-13T08:44:07.358Z,40.45
2023-05-13T08:46:39.991Z,40.55
2023-05-13T08:49:11.023Z,40.31
2023-05-13T08:51:41.410Z,40.41
2023-05-13T08:54:11.131Z,40.68
2023-05-13T08:56:44.510Z,40.61
2023-05-13T08:59:15.451Z,40.06
2023-05-13T09:01:47.246Z,40.24
2023-05-13T09:04:17.157Z,39.89
2023-05-13T09:06:54.823Z,39.60
2023-05-13T09:09:29.132Z,39.77
2023-05-13T09:12:00.796Z,39.80
2023-05-13T09:14:35.818Z,40.10
2023-05-13T09:17:11.624Z,40.15
2023-05-13T09:19:42.504Z,40.38
2023-05-13T09:22:18.828Z,40.09
2023-05-13T09:24:56.742Z,40.75
2023-05-13T09:27:40.871Z,40.43
2023-05-13T09:30:10.387Z,40.33
2023-05-13T09:32:57.276Z,40.93
2023-05-13T09:35:56.445Z,40.80
2023-05-13T09:38:35.018Z,40.91
2023-05-13T09:41:04.187Z,41.04
2023-05-13T09:43:33.475Z,40.41
2023-05-13T09:46:03.744Z,40.76
2023-05-13T09:48:35.494Z,40.87
2023-05-13T09:51:06.777Z,40.71
2023-05-13T09:53:38.129Z,40.56
2023-05-13T09:56:10.873Z,40.61
2023-05-13T09:58:53.252Z,40.57
2023-05-13T10:01:22.888Z,40.28
2023-05-13T10:03:52.165Z,40.69
2023-05-13T10:06:25.164Z,40.30
2023-05-13T10:08:56.494Z,40.77
2023-05-13T10:11:26.161Z,40.33
2023-05-13T10:14:02.489Z,40.84
2023-05-13T10:16:33.084Z,40.63
2023-05-13T10:19:01.823Z,40.81
2023-05-13T10:21:32.898Z,41.12
2023-05-13T10:24:02.248Z,41.18
2023-05-13T10:26:31.695Z,41.32
2023-05-13T10:29:00.253Z,41.72
2023-05-13T10:31:30.012Z,41.12
2023-05-13T10:33:59.246Z,41.05
2023-05-13T10:36:52.161Z,40.94
2023-05-13T10:39:27.124Z,41.07
2023-05-13T10:42:32.168Z,41.43
2023-05-13T10:45:03.894Z,41.73
2023-05-13T10:47:36.858Z,41.79
2023-05-13T10:50:07.095Z,41.98
2023-05-13T10:52:47.505Z,42.05
2023-05-13T10:55:20.991Z,42.44
2023-05-13T10:58:13.170Z,42.09
2023-05-13T11:00:46.516Z,42.33
2023-05-13T11:03:35.535Z,42.64
2023-05-13T11:06:33.283Z,46.55
2023-05-13T11:09:29.384Z,45.25
2023-05-13T11:12:07.349Z,44.37
2023-05-13T11:14:38.400Z,42.83
2023-05-13T11:17:07.008Z,44.03
2023-05-13T11:19:42.127Z,42.70
2023-05-13T11:22:21.430Z,42.38
2023-05-13T11:25:06.228Z,42.27
2023-05-13T11:27:43.700Z,43.59
2023-05-13T11:30:30.966Z,43.75
2023-05-13T11:33:03.433Z,43.29
2023-05-13T11:35:36.094Z,42.43
2023-05-13T11:38:08.897Z,44.17
2023-05-13T11:40:39.365Z,43.29
2023-05-13T11:43:09.677Z,43.01
2023-05-13T11:46:38.625Z,42.46
2023-05-13T11:49:07.663Z,42.79
2023-05-13T11:51:39.524Z,42.78
2023-05-13T11:54:07.903Z,42.89
2023-05-13T11:56:37.305Z,42.96
2023-05-13T11:59:15.386Z,43.87
2023-05-13T12:01:44.041Z,43.08
2023-05-13T12:04:13.847Z,42.67
2023-05-13T12:06:48.705Z,41.99
2023-05-13T12:09:23.815Z,41.85
2023-05-13T12:11:58.698Z,42.03
2023-05-13T12:14:29.820Z,42.10
2023-05-13T12:16:58.449Z,42.17
2023-05-13T12:19:26.749Z,42.07
2023-05-13T12:21:55.096Z,42.29
2023-05-13T12:24:26.343Z,41.99
2023-05-13T12:27:07.211Z,42.16
2023-05-13T12:33:05.426Z,42.17
2023-05-13T12:35:41.797Z,41.75
2023-05-13T12:38:19.292Z,42.14
2023-05-13T12:40:52.645Z,42.63
2023-05-13T12:43:24.196Z,42.86
2023-05-13T12:45:57.042Z,43.37
2023-05-13T12:48:26.420Z,43.80
2023-05-13T12:50:55.197Z,43.91
2023-05-13T12:53:25.487Z,43.66
2023-05-13T12:55:54.374Z,43.23
2023-05-13T12:58:26.239Z,43.62
2023-05-13T13:00:54.818Z,43.50
2023-05-13T13:03:24.746Z,43.47
2023-05-13T13:05:53.125Z,43.88
2023-05-13T13:08:30.673Z,43.81
2023-05-13T13:11:02.002Z,43.55
2023-05-13T13:13:31.188Z,43.44
2023-05-13T13:16:00.665Z,43.87
2023-05-13T13:18:29.476Z,43.62
2023-05-13T13:20:58.079Z,43.65
2023-05-13T13:23:26.496Z,43.70
2023-05-13T13:25:55.137Z,44.10
2023-05-13T13:28:24.505Z,43.79
2023-05-13T13:30:53.173Z,43.78
2023-05-13T13:33:21.535Z,43.66
2023-05-13T13:35:52.992Z,43.25
2023-05-13T13:38:31.933Z,43.01
2023-05-13T13:41:00.551Z,43.12
2023-05-13T13:43:29.114Z,43.50
2023-05-13T13:46:02.737Z,44.12
2023-05-13T13:48:31.077Z,43.64
2023-05-13T13:51:00.278Z,43.30
2023-05-13T13:53:29.367Z,43.03
2023-05-13T13:56:00.801Z,42.75
2023-05-13T13:58:29.608Z,43.01
2023-05-13T14:01:00.635Z,43.17
2023-05-13T14:03:32.303Z,43.14
2023-05-13T14:06:01.439Z,42.76
2023-05-13T14:08:30.558Z,42.64
2023-05-13T14:10:59.461Z,43.12
2023-05-13T14:13:28.174Z,43.23
2023-05-13T14:15:57.029Z,43.37
2023-05-13T14:18:25.745Z,43.08
2023-05-13T14:20:56.639Z,43.03
2023-05-13T14:23:28.066Z,43.37
2023-05-13T14:25:58.978Z,43.61
2023-05-13T14:28:30.705Z,43.57
2023-05-13T14:31:03.173Z,43.33
2023-05-13T14:33:36.446Z,43.33
2023-05-13T14:36:06.553Z,43.55
2023-05-13T14:38:40.147Z,44.25
2023-05-13T14:41:11.236Z,44.28
2023-05-13T14:43:42.187Z,43.92
2023-05-13T14:46:11.872Z,43.64
2023-05-13T14:48:49.203Z,43.92
2023-05-13T14:51:20.388Z,44.04
2023-05-13T14:54:03.292Z,44.11
2023-05-13T14:59:31.241Z,43.61
2023-05-13T15:02:07.986Z,43.31
2023-05-13T15:04:45.699Z,42.80
2023-05-13T15:07:16.757Z,43.08
2023-05-13T15:09:45.219Z,42.93
2023-05-13T15:12:13.420Z,43.01
2023-05-13T15:14:41.741Z,42.89
2023-05-13T15:17:12.214Z,43.19
2023-05-13T15:19:40.569Z,43.23
2023-05-13T15:22:12.916Z,43.66
2023-05-13T15:24:42.098Z,43.67
2023-05-13T15:27:12.008Z,43.72
2023-05-13T15:29:40.366Z,43.38
2023-05-13T15:32:08.863Z,43.22
2023-05-13T15:34:37.152Z,43.41
2023-05-13T15:37:05.765Z,43.61
2023-05-13T15:39:34.269Z,43.58
2023-05-13T15:42:02.774Z,43.40
2023-05-13T15:44:31.033Z,43.54
2023-05-13T15:47:07.281Z,43.21
2023-05-13T15:49:35.943Z,43.04
2023-05-13T15:52:30.039Z,43.39
2023-05-13T15:54:58.401Z,43.56
2023-05-13T15:57:26.728Z,43.99
2023-05-13T15:59:55.290Z,44.88
2023-05-13T16:02:24.060Z,46.36
2023-05-13T16:05:00.854Z,46.84
2023-05-13T16:07:32.605Z,46.41
2023-05-13T16:10:02.754Z,46.89
2023-05-13T16:12:32.359Z,47.70
2023-05-13T16:15:01.020Z,47.50
2023-05-13T16:17:29.694Z,47.17
2023-05-13T16:19:58.268Z,47.07
2023-05-13T16:22:34.858Z,47.23
2023-05-13T16:25:05.858Z,46.69
2023-05-13T16:27:35.390Z,46.70
2023-05-13T16:30:07.701Z,46.40
2023-05-13T16:32:36.088Z,46.36
2023-05-13T16:35:05.178Z,46.05
2023-05-13T16:37:36.721Z,46.16
2023-05-13T16:40:13.328Z,46.00
2023-05-13T16:42:44.209Z,45.68
2023-05-13T16:45:14.387Z,45.46
2023-05-13T16:47:43.233Z,45.93
2023-05-13T16:50:19.084Z,46.44
2023-05-13T16:52:47.830Z,44.77
2023-05-13T16:55:16.452Z,44.91
2023-05-13T16:57:44.939Z,44.72
2023-05-13T17:00:18.234Z,44.55
2023-05-13T17:02:47.162Z,44.40
2023-05-13T17:05:18.941Z,44.15
2023-05-13T17:07:47.676Z,44.17
2023-05-13T17:10:16.264Z,44.36
2023-05-13T17:12:45.342Z,44.27
2023-05-13T17:15:20.185Z,44.44
2023-05-13T17:17:48.757Z,44.27
2023-05-13T17:20:20.736Z,44.85
2023-05-13T17:22:51.613Z,44.63
2023-05-13T17:25:21.949Z,45.25
2023-05-13T17:27:50.798Z,44.90
2023-05-13T17:30:19.362Z,44.97
2023-05-13T17:32:50.672Z,45.16
2023-05-13T17:35:19.551Z,45.30
2023-05-13T17:37:50.498Z,45.37
2023-05-13T17:40:21.695Z,45.27
2023-05-13T17:42:54.890Z,45.27
2023-05-13T17:45:23.449Z,45.01
2023-05-13T17:47:51.732Z,45.45
2023-05-13T17:50:23.476Z,45.34
2023-05-13T17:52:52.667Z,45.34
2023-05-13T17:55:25.878Z,44.99
2023-05-13T17:57:55.695Z,44.86
2023-05-13T18:00:24.620Z,45.07
2023-05-13T18:02:53.401Z,45.18
2023-05-13T18:05:24.404Z,45.06
2023-05-13T18:07:54.350Z,45.45
2023-05-13T18:10:29.298Z,45.55
2023-05-13T18:13:00.632Z,45.44
2023-05-13T18:15:29.345Z,45.69
2023-05-13T18:17:57.970Z,45.67
2023-05-13T18:20:30.443Z,45.62
2023-05-13T18:23:01.864Z,45.91
2023-05-13T18:25:33.586Z,45.55
2023-05-13T18:28:03.878Z,45.49
2023-05-13T18:30:32.445Z,45.13
2023-05-13T18:33:01.758Z,45.90
2023-05-13T18:35:35.567Z,45.58
2023-05-13T18:38:04.606Z,45.58
2023-05-13T18:40:34.010Z,45.78
2023-05-13T18:43:02.861Z,45.13
2023-05-13T18:45:35.125Z,45.28
2023-05-13T18:48:04.676Z,45.37
2023-05-13T18:50:33.743Z,45.19
2023-05-13T18:53:02.515Z,45.11
2023-05-13T18:55:32.352Z,44.91
2023-05-13T18:58:03.471Z,44.77
2023-05-13T19:00:32.380Z,44.68
2023-05-13T19:03:06.777Z,44.63
2023-05-13T19:05:37.242Z,44.30
2023-05-13T19:08:06.563Z,44.98
2023-05-13T19:10:40.773Z,44.91
2023-05-13T19:13:14.241Z,44.62
2023-05-13T19:15:51.455Z,44.78
2023-05-13T19:18:23.886Z,44.99
2023-05-13T19:20:59.627Z,45.25
2023-05-13T19:23:31.202Z,45.32
2023-05-13T19:26:02.046Z,45.01
2023-05-13T19:28:33.531Z,45.60
2023-05-13T19:31:08.061Z,46.52
2023-05-13T19:33:37.595Z,47.16
2023-05-13T19:37:17.803Z,48.42
2023-05-13T19:39:52.545Z,48.64
2023-05-13T19:42:28.098Z,48.67
2023-05-13T19:44:57.645Z,48.77
2023-05-13T19:47:33.319Z,49.40
2023-05-13T19:50:07.982Z,49.51
2023-05-13T19:52:36.083Z,49.01
2023-05-13T19:55:04.990Z,49.73
2023-05-13T19:57:36.395Z,49.48
2023-05-13T20:00:07.338Z,49.29
2023-05-13T20:02:40.343Z,49.67
2023-05-13T20:05:11.209Z,49.46
2023-05-13T20:07:43.936Z,49.05
2023-05-13T20:10:24.223Z,48.83
2023-05-13T20:12:53.444Z,48.81
2023-05-13T20:15:27.365Z,48.72
2023-05-13T20:18:01.020Z,48.72
2023-05-13T20:20:29.961Z,48.88
2023-05-13T20:23:13.838Z,48.68
2023-05-13T20:26:01.883Z,48.87
2023-05-13T20:28:31.025Z,48.50
2023-05-13T20:31:05.231Z,48.74
2023-05-13T20:33:34.503Z,49.22
2023-05-13T20:36:03.485Z,48.77
2023-05-13T20:38:31.869Z,48.56
2023-05-13T20:41:03.840Z,49.06
2023-05-13T20:43:38.605Z,48.40
2023-05-13T20:46:13.916Z,48.73
2023-05-13T20:48:48.451Z,48.77
2023-05-13T20:51:27.748Z,48.63
2023-05-13T20:53:58.068Z,48.72
2023-05-13T20:56:26.930Z,48.82
2023-05-13T20:58:58.956Z,48.63
2023-05-13T21:01:27.824Z,48.56
2023-05-13T21:03:59.510Z,49.11
2023-05-13T21:06:28.453Z,49.45
2023-05-13T21:08:59.376Z,49.35
2023-05-13T21:11:31.673Z,49.64
2023-05-13T21:14:21.114Z,48.82
2023-05-13T21:17:03.990Z,48.56
2023-05-13T21:19:36.834Z,48.13
2023-05-13T21:22:41.532Z,48.28
2023-05-13T21:25:15.320Z,48.36
2023-05-13T21:27:44.446Z,48.24
2023-05-13T21:30:17.791Z,48.10
2023-05-13T21:32:46.179Z,48.06
2023-05-13T21:35:16.689Z,48.13
2023-05-13T21:37:47.126Z,48.01
2023-05-13T21:40:16.103Z,47.64
2023-05-13T21:42:47.812Z,47.81
2023-05-13T21:45:16.548Z,47.74
2023-05-13T21:50:30.409Z,47.59
2023-05-13T21:52:59.376Z,47.70
2023-05-13T21:55:37.413Z,47.52
2023-05-13T21:58:08.758Z,47.67
2023-05-13T22:00:40.660Z,47.84
2023-05-13T22:03:11.900Z,47.69
2023-05-13T22:05:47.563Z,47.76
2023-05-13T22:08:41.696Z,47.14
2023-05-13T22:11:15.405Z,47.21
2023-05-13T22:13:44.058Z,46.92
2023-05-13T22:16:20.442Z,47.02
2023-05-13T22:18:50.538Z,46.68
2023-05-13T22:21:25.823Z,47.01
2023-05-13T22:23:56.319Z,46.62
2023-05-13T22:26:25.277Z,46.53
2023-05-13T22:28:56.802Z,46.60
2023-05-13T22:31:26.291Z,46.54
2023-05-13T22:33:55.896Z,46.58
2023-05-13T22:36:25.857Z,46.84
2023-05-13T22:38:57.698Z,46.69
2023-05-13T22:41:27.294Z,46.49
2023-05-13T22:43:55.525Z,46.42
2023-05-13T22:46:28.154Z,46.48
2023-05-13T22:48:58.510Z,46.72
2023-05-13T22:51:28.108Z,46.80
2023-05-13T22:53:57.119Z,46.85
2023-05-13T22:56:28.317Z,46.80
2023-05-13T22:58:57.035Z,46.73
2023-05-13T23:01:26.052Z,46.87
2023-05-13T23:03:58.073Z,46.74
2023-05-13T23:06:27.752Z,46.72
2023-05-13T23:08:56.399Z,46.97
2023-05-13T23:11:28.509Z,46.71
2023-05-13T23:13:59.649Z,46.76
2023-05-13T23:16:34.393Z,46.82
2023-05-13T23:19:04.235Z,46.85
2023-05-13T23:21:34.179Z,46.77
2023-05-13T23:24:02.877Z,47.01
2023-05-13T23:26:34.762Z,47.08
2023-05-13T23:29:04.670Z,47.28
2023-05-13T23:31:33.685Z,47.27
2023-05-13T23:34:03.376Z,47.34
2023-05-13T23:36:34.312Z,47.22
2023-05-13T23:39:03.697Z,47.21
2023-05-13T23:41:35.918Z,47.02
2023-05-13T23:44:04.913Z,47.20
2023-05-13T23:46:35.923Z,47.27
2023-05-13T23:49:05.518Z,47.02
2023-05-13T23:51:33.983Z,47.28
2023-05-13T23:54:05.140Z,47.30
2023-05-13T23:56:34.463Z,47.53
2023-05-13T23:59:02.896Z,47.30
